Time;durP1;ratioP1;P1;durP2;ratioP2;P2;SDS_P1;SDS_P2;PMS_P1;PMS_P2;Temp;Humidity;BMP_temperature;BMP_pressure;BME280_temperature;BME280_humidity;BME280_pressure;Samples;Min_cycle;Max_cycle;Signal;HPM_P1;HPM_P2
2023/07/06 00:01:45;;;;;;;;;;;15.30;99.90;;;;;;7329449;19;109601;-60
2023/07/06 00:04:14;;;;;;;;;;;15.30;99.90;;;;;;7333583;19;108355;-60
2023/07/06 00:06:41;;;;;;;;;;;15.30;99.90;;;;;;7329937;19;108982;-60
2023/07/06 00:09:09;;;;;;;;;;;15.30;99.90;;;;;;7333914;19;109403;-60
2023/07/06 00:11:36;;;;;;;;;;;15.30;99.90;;;;;;7329819;19;109518;-60
2023/07/06 00:14:07;;;;;;;;;;;15.30;99.90;;;;;;7336120;19;108941;-60
2023/07/06 00:16:34;;;;;;;;;;;15.40;99.90;;;;;;7329094;19;109959;-60
2023/07/06 00:19:02;;;;;;;;;;;15.30;99.90;;;;;;7333775;19;109558;-60
2023/07/06 00:21:32;;;;;;;;;;;15.30;99.90;;;;;;7329900;19;109307;-60
2023/07/06 00:24:00;;;;;;;;;;;15.30;99.90;;;;;;7329227;19;109533;-60
2023/07/06 00:26:27;;;;;;;;;;;15.30;99.90;;;;;;7333043;19;109527;-60
2023/07/06 00:28:55;;;;;;;;;;;15.30;99.90;;;;;;7332844;19;109181;-60
2023/07/06 00:31:32;;;;;;;;;;;15.30;99.90;;;;;;7335679;19;109417;-60
2023/07/06 00:34:03;;;;;;;;;;;15.30;99.90;;;;;;7336861;19;108997;-62
2023/07/06 00:36:37;;;;;;;;;;;15.30;99.90;;;;;;7335362;19;111784;-60
2023/07/06 00:39:04;;;;;;;;;;;15.30;99.90;;;;;;7335050;19;110219;-60
2023/07/06 00:41:32;;;;;;;;;;;15.30;99.90;;;;;;7337432;19;108657;-60
2023/07/06 00:43:59;;;;;;;;;;;15.30;99.90;;;;;;7336702;19;108977;-60
2023/07/06 00:46:29;;;;;;;;;;;15.30;99.90;;;;;;7335446;19;109090;-60
2023/07/06 00:48:59;;;;;;;;;;;15.30;99.90;;;;;;7339798;19;108330;-60
2023/07/06 00:51:28;;;;;;;;;;;15.30;99.90;;;;;;7337403;19;108610;-60
2023/07/06 00:53:56;;;;;;;;;;;15.30;99.90;;;;;;7336467;19;108741;-60
2023/07/06 00:56:28;;;;;;;;;;;15.30;99.90;;;;;;7336507;19;109373;-61
2023/07/06 00:59:04;;;;;;;;;;;15.20;99.90;;;;;;7331644;19;110186;-60
2023/07/06 01:01:34;;;;;;;;;;;15.20;99.90;;;;;;7334361;19;109662;-60
2023/07/06 01:04:02;;;;;;;;;;;15.20;99.90;;;;;;7337140;19;109544;-60
2023/07/06 01:06:34;;;;;;;;;;;15.10;99.90;;;;;;7333633;19;109582;-60
2023/07/06 01:09:04;;;;;;;;;;;15.20;99.90;;;;;;7335000;19;109252;-60
2023/07/06 01:11:31;;;;;;;;;;;15.20;99.90;;;;;;7342676;19;109234;-60
2023/07/06 01:14:00;;;;;;;;;;;15.10;99.90;;;;;;7333315;19;108863;-61
2023/07/06 01:16:38;;;;;;;;;;;15.10;99.90;;;;;;7331802;19;108366;-60
2023/07/06 01:19:11;;;;;;;;;;;15.20;99.90;;;;;;7336763;19;109637;-60
2023/07/06 01:21:38;;;;;;;;;;;15.10;99.90;;;;;;7336068;19;112739;-61
2023/07/06 01:24:05;;;;;;;;;;;15.10;99.90;;;;;;7337957;19;110749;-60
2023/07/06 01:26:41;;;;;;;;;;;15.10;99.90;;;;;;7336180;19;109080;-60
2023/07/06 01:29:30;;;;;;;;;;;15.10;99.90;;;;;;7333746;19;114079;-60
2023/07/06 01:32:08;;;;;;;;;;;15.10;99.90;;;;;;7340089;19;109994;-60
2023/07/06 01:34:41;;;;;;;;;;;15.10;99.90;;;;;;7335126;19;109106;-60
2023/07/06 01:37:11;;;;;;;;;;;15.10;99.90;;;;;;7329863;19;110822;-62
2023/07/06 01:39:38;;;;;;;;;;;15.10;99.90;;;;;;7336413;19;110450;-60
2023/07/06 01:42:06;;;;;;;;;;;15.10;99.90;;;;;;7333365;19;108924;-60
2023/07/06 01:44:33;;;;;;;;;;;15.10;99.90;;;;;;7333076;19;109843;-60
2023/07/06 01:47:02;;;;;;;;;;;15.10;99.90;;;;;;7332453;19;112476;-62
2023/07/06 01:49:29;;;;;;;;;;;15.00;99.90;;;;;;7333510;19;108887;-60
2023/07/06 01:52:06;;;;;;;;;;;15.00;99.90;;;;;;7332949;19;108420;-60
2023/07/06 01:54:41;;;;;;;;;;;15.00;99.90;;;;;;7343464;19;109191;-60
2023/07/06 01:57:15;;;;;;;;;;;15.00;99.90;;;;;;7333652;19;109819;-60
2023/07/06 01:59:49;;;;;;;;;;;15.00;99.90;;;;;;7333121;19;128695;-60
2023/07/06 02:02:16;;;;;;;;;;;15.00;99.90;;;;;;7331700;19;109910;-60
2023/07/06 02:04:44;;;;;;;;;;;15.00;99.90;;;;;;7334942;19;111172;-60
2023/07/06 02:07:11;;;;;;;;;;;15.00;99.90;;;;;;7332004;19;109269;-60
2023/07/06 02:09:42;;;;;;;;;;;14.90;99.90;;;;;;7335142;19;108832;-60
2023/07/06 02:12:12;;;;;;;;;;;14.90;99.90;;;;;;7333606;19;108686;-60
2023/07/06 02:14:41;;;;;;;;;;;14.90;99.90;;;;;;7328473;19;109072;-60
2023/07/06 02:17:09;;;;;;;;;;;14.90;99.90;;;;;;7337519;19;109357;-60
2023/07/06 02:19:38;;;;;;;;;;;14.90;99.90;;;;;;7333793;19;110322;-60
2023/07/06 02:22:05;;;;;;;;;;;14.80;99.90;;;;;;7333503;19;111260;-60
2023/07/06 02:24:33;;;;;;;;;;;14.80;99.90;;;;;;7337172;19;109125;-60
2023/07/06 02:27:00;;;;;;;;;;;14.80;99.90;;;;;;7332225;19;110282;-60
2023/07/06 02:29:27;;;;;;;;;;;14.70;99.90;;;;;;7335079;19;110375;-60
2023/07/06 02:31:54;;;;;;;;;;;14.70;99.90;;;;;;7335918;19;109181;-60
2023/07/06 02:34:27;;;;;;;;;;;14.70;99.90;;;;;;7328102;19;109067;-60
2023/07/06 02:36:55;;;;;;;;;;;14.70;99.90;;;;;;7334130;19;109044;-60
2023/07/06 02:39:24;;;;;;;;;;;14.70;99.90;;;;;;7334634;19;108455;-60
2023/07/06 02:41:54;;;;;;;;;;;14.70;99.90;;;;;;7334034;19;108440;-60
2023/07/06 02:44:22;;;;;;;;;;;14.60;99.90;;;;;;7331185;19;109351;-60
2023/07/06 02:46:50;;;;;;;;;;;14.60;99.90;;;;;;7329569;19;111442;-59
2023/07/06 02:49:18;;;;;;;;;;;14.50;99.90;;;;;;7332972;19;109254;-59
2023/07/06 02:51:46;;;;;;;;;;;14.50;99.90;;;;;;7332185;19;108627;-63
2023/07/06 02:54:15;;;;;;;;;;;14.50;99.90;;;;;;7330723;19;110055;-60
2023/07/06 02:56:42;;;;;;;;;;;14.50;99.90;;;;;;7332862;19;109102;-62
2023/07/06 02:59:09;;;;;;;;;;;14.50;99.90;;;;;;7332802;19;110428;-60
2023/07/06 03:01:37;;;;;;;;;;;14.40;99.90;;;;;;7338170;19;109145;-59
2023/07/06 03:04:09;;;;;;;;;;;14.40;99.90;;;;;;7329123;19;108734;-60
2023/07/06 03:06:37;;;;;;;;;;;14.40;99.90;;;;;;7329008;19;109435;-60
2023/07/06 03:09:05;;;;;;;;;;;14.40;99.90;;;;;;7329967;19;108731;-60
2023/07/06 03:11:32;;;;;;;;;;;14.40;99.90;;;;;;7332650;19;109311;-60
2023/07/06 03:14:00;;;;;;;;;;;14.40;99.90;;;;;;7328157;19;110462;-60
2023/07/06 03:16:27;;;;;;;;;;;14.30;99.90;;;;;;7333141;19;108766;-60
2023/07/06 03:18:54;;;;;;;;;;;14.30;99.90;;;;;;7329248;19;108872;-60
2023/07/06 03:21:21;;;;;;;;;;;14.30;99.90;;;;;;7329789;19;109528;-60
2023/07/06 03:23:49;;;;;;;;;;;14.30;99.90;;;;;;7335055;19;109343;-60
2023/07/06 03:26:16;;;;;;;;;;;14.20;99.90;;;;;;7327247;19;110329;-60
2023/07/06 03:28:43;;;;;;;;;;;14.20;99.90;;;;;;7324590;19;108589;-61
2023/07/06 03:31:20;;;;;;;;;;;14.20;99.90;;;;;;7331108;19;110157;-60
2023/07/06 03:33:47;;;;;;;;;;;14.20;99.90;;;;;;7328953;19;110819;-60
2023/07/06 03:36:14;;;;;;;;;;;14.10;99.90;;;;;;7330226;19;108637;-60
2023/07/06 03:38:41;;;;;;;;;;;14.20;99.90;;;;;;7328921;19;108621;-60
2023/07/06 03:41:08;;;;;;;;;;;14.10;99.90;;;;;;7330663;19;109636;-60
2023/07/06 03:43:35;;;;;;;;;;;14.10;99.90;;;;;;7335801;19;108825;-60
2023/07/06 03:46:03;;;;;;;;;;;14.00;99.90;;;;;;7330431;19;109986;-60
2023/07/06 03:48:30;;;;;;;;;;;14.00;99.90;;;;;;7324910;19;109476;-60
2023/07/06 03:51:02;;;;;;;;;;;14.00;99.90;;;;;;7328821;19;110355;-60
2023/07/06 03:53:30;;;;;;;;;;;14.00;99.90;;;;;;7328296;19;109238;-60
2023/07/06 03:55:58;;;;;;;;;;;14.00;99.90;;;;;;7332001;19;109507;-60
2023/07/06 03:58:25;;;;;;;;;;;14.00;99.90;;;;;;7329952;19;108695;-60
2023/07/06 04:00:52;;;;;;;;;;;13.90;99.90;;;;;;7331453;19;109519;-60
2023/07/06 04:03:20;;;;;;;;;;;13.90;99.90;;;;;;7331035;19;108893;-60
2023/07/06 04:05:48;;;;;;;;;;;13.90;99.90;;;;;;7344072;19;108992;-60
2023/07/06 04:08:17;;;;;;;;;;;13.90;99.90;;;;;;7339003;19;109239;-60
2023/07/06 04:10:44;;;;;;;;;;;13.90;99.90;;;;;;7337066;19;109158;-60
2023/07/06 04:13:13;;;;;;;;;;;13.90;99.90;;;;;;7336583;19;110394;-59
2023/07/06 04:15:45;;;;;;;;;;;13.90;99.90;;;;;;7332787;19;108619;-59
2023/07/06 04:18:15;;;;;;;;;;;13.90;99.90;;;;;;7337057;19;109767;-60
2023/07/06 04:20:42;;;;;;;;;;;13.80;99.90;;;;;;7336465;19;110037;-60
2023/07/06 04:23:09;;;;;;;;;;;13.80;99.90;;;;;;7338635;19;110226;-59
2023/07/06 04:25:36;;;;;;;;;;;13.80;99.90;;;;;;7336947;19;109736;-59
2023/07/06 04:28:05;;;;;;;;;;;13.90;99.90;;;;;;7342144;19;109281;-62
2023/07/06 04:30:33;;;;;;;;;;;13.90;99.90;;;;;;7333979;19;110655;-59
2023/07/06 04:33:01;;;;;;;;;;;13.90;99.90;;;;;;7338432;19;109977;-59
2023/07/06 04:35:29;;;;;;;;;;;14.00;99.90;;;;;;7335197;19;108356;-59
2023/07/06 04:37:56;;;;;;;;;;;14.00;99.90;;;;;;7339294;19;111222;-60
2023/07/06 04:40:26;;;;;;;;;;;14.10;99.90;;;;;;7335484;19;112389;-59
2023/07/06 04:42:54;;;;;;;;;;;14.10;99.90;;;;;;7334781;19;109644;-58
2023/07/06 04:45:24;;;;;;;;;;;14.10;99.90;;;;;;7335712;19;110709;-59
2023/07/06 04:47:52;;;;;;;;;;;14.20;99.90;;;;;;7336537;19;109808;-60
2023/07/06 04:50:22;;;;;;;;;;;14.20;99.90;;;;;;7339344;19;108825;-60
2023/07/06 04:52:58;;;;;;;;;;;14.30;99.90;;;;;;7336126;19;109628;-60
2023/07/06 04:55:26;;;;;;;;;;;14.40;99.90;;;;;;7336347;19;109773;-60
2023/07/06 04:57:56;;;;;;;;;;;14.40;99.90;;;;;;7337663;19;109047;-60
2023/07/06 05:00:28;;;;;;;;;;;14.50;99.90;;;;;;7337621;19;113488;-60
2023/07/06 05:02:58;;;;;;;;;;;14.50;99.90;;;;;;7334136;19;108900;-60
2023/07/06 05:05:27;;;;;;;;;;;14.50;99.90;;;;;;7337333;19;109918;-60
2023/07/06 05:07:58;;;;;;;;;;;14.60;99.90;;;;;;7336687;19;111272;-60
2023/07/06 05:10:25;;;;;;;;;;;14.60;99.90;;;;;;7334411;19;110696;-60
2023/07/06 05:12:53;;;;;;;;;;;14.60;99.90;;;;;;7341035;19;108674;-60
2023/07/06 05:15:20;;;;;;;;;;;14.70;99.90;;;;;;7335419;19;108774;-60
2023/07/06 05:17:48;;;;;;;;;;;14.80;99.90;;;;;;7336610;19;110538;-60
2023/07/06 05:20:15;;;;;;;;;;;14.80;99.90;;;;;;7335666;19;109407;-60
2023/07/06 05:22:42;;;;;;;;;;;14.90;99.90;;;;;;7338024;19;109589;-60
2023/07/06 05:25:10;;;;;;;;;;;14.90;99.90;;;;;;7336500;19;109783;-60
2023/07/06 05:27:37;;;;;;;;;;;15.00;99.90;;;;;;7335808;19;111463;-60
2023/07/06 05:30:06;;;;;;;;;;;15.00;99.90;;;;;;7336877;19;108922;-60
2023/07/06 05:32:33;;;;;;;;;;;15.10;99.90;;;;;;7332714;19;110655;-60
2023/07/06 05:35:00;;;;;;;;;;;15.10;99.90;;;;;;7341663;19;110246;-60
2023/07/06 05:37:28;;;;;;;;;;;15.20;99.90;;;;;;7337974;19;115077;-60
2023/07/06 05:40:04;;;;;;;;;;;15.30;99.90;;;;;;7334882;19;110195;-60
2023/07/06 05:42:31;;;;;;;;;;;15.40;99.90;;;;;;7337693;19;108537;-60
2023/07/06 05:44:58;;;;;;;;;;;15.40;99.90;;;;;;7335445;19;109940;-60
2023/07/06 05:47:26;;;;;;;;;;;15.50;99.90;;;;;;7336372;19;110478;-59
2023/07/06 05:49:54;;;;;;;;;;;15.60;99.90;;;;;;7333979;19;111240;-60
2023/07/06 05:52:21;;;;;;;;;;;15.70;99.90;;;;;;7335901;19;108867;-62
2023/07/06 05:54:48;;;;;;;;;;;15.80;99.90;;;;;;7340771;19;110991;-63
2023/07/06 05:57:17;;;;;;;;;;;15.90;99.90;;;;;;7334064;19;108825;-63
2023/07/06 05:59:45;;;;;;;;;;;15.90;99.90;;;;;;7334657;19;110002;-63
2023/07/06 06:02:15;;;;;;;;;;;16.00;99.90;;;;;;7332849;19;109135;-63
2023/07/06 06:04:42;;;;;;;;;;;16.00;99.90;;;;;;7334006;19;109666;-63
2023/07/06 06:07:10;;;;;;;;;;;16.10;99.90;;;;;;7329488;19;109599;-63
2023/07/06 06:09:37;;;;;;;;;;;16.10;99.90;;;;;;7336009;19;109212;-63
2023/07/06 06:12:04;;;;;;;;;;;16.20;99.90;;;;;;7332668;19;109805;-62
2023/07/06 06:14:32;;;;;;;;;;;16.30;99.90;;;;;;7335498;19;110035;-62
2023/07/06 06:17:00;;;;;;;;;;;16.40;99.90;;;;;;7339184;19;109507;-62
2023/07/06 06:19:27;;;;;;;;;;;16.40;99.90;;;;;;7336707;19;109513;-62
2023/07/06 06:21:54;;;;;;;;;;;16.50;99.90;;;;;;7335576;19;109244;-63
2023/07/06 06:24:22;;;;;;;;;;;16.60;99.90;;;;;;7334220;19;109029;-63
2023/07/06 06:26:49;;;;;;;;;;;16.70;99.90;;;;;;7335298;19;109063;-63
2023/07/06 06:29:17;;;;;;;;;;;16.80;99.90;;;;;;7333674;19;109591;-63
2023/07/06 06:31:44;;;;;;;;;;;16.80;99.90;;;;;;7333276;19;108798;-63
2023/07/06 06:34:11;;;;;;;;;;;16.90;99.90;;;;;;7333209;19;109361;-63
2023/07/06 06:36:38;;;;;;;;;;;17.00;99.90;;;;;;7333951;19;109321;-63
2023/07/06 06:39:06;;;;;;;;;;;17.10;99.90;;;;;;7339123;19;109893;-63
2023/07/06 06:41:33;;;;;;;;;;;17.20;99.90;;;;;;7335978;19;108489;-63
2023/07/06 06:44:00;;;;;;;;;;;17.20;99.90;;;;;;7335879;19;110031;-63
2023/07/06 06:46:27;;;;;;;;;;;17.30;99.90;;;;;;7333147;19;109380;-63
2023/07/06 06:48:55;;;;;;;;;;;17.40;99.90;;;;;;7334908;19;108911;-63
2023/07/06 06:51:22;;;;;;;;;;;17.40;99.90;;;;;;7335575;19;108972;-63
2023/07/06 06:53:52;;;;;;;;;;;17.50;99.90;;;;;;7334748;19;110209;-63
2023/07/06 06:56:22;;;;;;;;;;;17.60;99.90;;;;;;7334747;19;108487;-63
2023/07/06 06:58:51;;;;;;;;;;;17.70;99.90;;;;;;7332628;19;109233;-63
2023/07/06 07:01:20;;;;;;;;;;;17.70;99.90;;;;;;7340462;19;109367;-63
2023/07/06 07:03:48;;;;;;;;;;;17.80;99.90;;;;;;7332201;19;109166;-64
2023/07/06 07:06:16;;;;;;;;;;;17.90;99.90;;;;;;7333447;19;109611;-63
2023/07/06 07:08:44;;;;;;;;;;;18.00;99.90;;;;;;7333441;19;111017;-64
2023/07/06 07:11:11;;;;;;;;;;;18.10;99.90;;;;;;7334732;19;108390;-64
2023/07/06 07:13:49;;;;;;;;;;;18.20;99.90;;;;;;7331970;19;110305;-64
2023/07/06 07:16:16;;;;;;;;;;;18.20;99.90;;;;;;7332285;19;108628;-64
2023/07/06 07:18:44;;;;;;;;;;;18.30;99.90;;;;;;7333013;19;109128;-64
2023/07/06 07:21:12;;;;;;;;;;;18.30;99.90;;;;;;7333537;19;110502;-64
2023/07/06 07:23:43;;;;;;;;;;;18.50;99.90;;;;;;7340103;19;108816;-64
2023/07/06 07:26:15;;;;;;;;;;;18.50;99.90;;;;;;7333343;19;109727;-64
2023/07/06 07:28:43;;;;;;;;;;;18.60;99.90;;;;;;7333530;19;109797;-64
2023/07/06 07:31:13;;;;;;;;;;;18.60;99.90;;;;;;7333375;19;108660;-64
2023/07/06 07:33:43;;;;;;;;;;;18.80;99.90;;;;;;7333374;19;110643;-64
2023/07/06 07:36:11;;;;;;;;;;;18.80;99.90;;;;;;7333654;19;109253;-64
2023/07/06 07:38:39;;;;;;;;;;;18.90;99.90;;;;;;7330488;19;109268;-64
2023/07/06 07:41:07;;;;;;;;;;;19.00;99.90;;;;;;7339170;19;110471;-64
2023/07/06 07:43:35;;;;;;;;;;;19.10;99.90;;;;;;7340902;19;108685;-64
2023/07/06 07:46:03;;;;;;;;;;;19.20;99.90;;;;;;7343285;19;108944;-64
2023/07/06 07:48:33;;;;;;;;;;;19.20;99.90;;;;;;7339578;19;109167;-64
2023/07/06 07:51:03;;;;;;;;;;;19.30;99.90;;;;;;7337626;19;109268;-64
2023/07/06 07:53:31;;;;;;;;;;;19.40;99.90;;;;;;7339021;19;109719;-65
2023/07/06 07:55:58;;;;;;;;;;;19.50;99.90;;;;;;7341882;19;109496;-64
2023/07/06 07:58:26;;;;;;;;;;;19.60;99.90;;;;;;7340681;19;108580;-64
2023/07/06 08:00:57;;;;;;;;;;;19.60;99.90;;;;;;7339001;19;109153;-64
2023/07/06 08:03:24;;;;;;;;;;;19.60;99.90;;;;;;7339592;19;111052;-64
2023/07/06 08:05:52;;;;;;;;;;;19.70;99.90;;;;;;7343437;19;110458;-66
2023/07/06 08:08:23;;;;;;;;;;;19.80;99.90;;;;;;7338516;19;108535;-65
2023/07/06 08:10:53;;;;;;;;;;;19.90;99.90;;;;;;7337969;19;109073;-64
2023/07/06 08:13:20;;;;;;;;;;;19.90;99.90;;;;;;7337132;19;110078;-64
2023/07/06 08:15:48;;;;;;;;;;;20.00;99.90;;;;;;7342113;19;110224;-64
2023/07/06 08:18:15;;;;;;;;;;;20.10;99.90;;;;;;7337560;19;111248;-64
2023/07/06 08:20:43;;;;;;;;;;;20.20;99.90;;;;;;7334127;19;109246;-64
2023/07/06 08:23:30;;;;;;;;;;;20.30;99.90;;;;;;7341207;19;108906;-64
2023/07/06 08:25:57;;;;;;;;;;;20.20;99.90;;;;;;7339585;19;111534;-63
2023/07/06 08:28:31;;;;;;;;;;;20.30;99.90;;;;;;7343018;19;110496;-63
2023/07/06 08:31:03;;;;;;;;;;;20.30;99.90;;;;;;7340025;19;109276;-64
2023/07/06 08:33:37;;;;;;;;;;;20.30;99.90;;;;;;7338883;19;109932;-63
2023/07/06 08:36:04;;;;;;;;;;;20.30;99.90;;;;;;7338809;19;108409;-63
2023/07/06 08:38:31;;;;;;;;;;;20.40;99.90;;;;;;7337531;19;109116;-63
2023/07/06 08:41:03;;;;;;;;;;;20.40;99.90;;;;;;7338991;19;108788;-63
2023/07/06 08:43:31;;;;;;;;;;;20.40;99.90;;;;;;7339235;19;108780;-63
2023/07/06 08:46:00;;;;;;;;;;;20.40;99.90;;;;;;7338530;19;108563;-64
2023/07/06 08:48:30;;;;;;;;;;;20.50;99.90;;;;;;7337409;19;111877;-63
2023/07/06 08:51:01;;;;;;;;;;;20.50;99.90;;;;;;7344390;19;108790;-63
2023/07/06 08:53:32;;;;;;;;;;;20.50;99.90;;;;;;7339341;19;109292;-63
2023/07/06 08:56:03;;;;;;;;;;;20.40;99.90;;;;;;7338485;19;110406;-64
2023/07/06 08:58:31;;;;;;;;;;;20.40;99.90;;;;;;7339938;19;110823;-64
2023/07/06 09:01:02;;;;;;;;;;;20.40;99.90;;;;;;7335309;19;111402;-63
2023/07/06 09:03:33;;;;;;;;;;;20.40;99.90;;;;;;7335435;19;108568;-65
2023/07/06 09:06:00;;;;;;;;;;;20.50;99.90;;;;;;7337729;19;110496;-64
2023/07/06 09:08:28;;;;;;;;;;;20.60;99.90;;;;;;7336209;19;109517;-64
2023/07/06 09:10:55;;;;;;;;;;;20.70;99.90;;;;;;7339085;19;109252;-63
2023/07/06 09:13:44;;;;;;;;;;;20.80;99.90;;;;;;7341665;19;108780;-63
2023/07/06 09:16:11;;;;;;;;;;;20.90;99.90;;;;;;7338989;19;109509;-64
2023/07/06 09:18:42;;;;;;;;;;;21.00;99.90;;;;;;7336113;19;108998;-64
2023/07/06 09:21:09;;;;;;;;;;;21.00;99.90;;;;;;7339037;19;109287;-63
2023/07/06 09:23:36;;;;;;;;;;;21.10;99.90;;;;;;7338158;19;109163;-64
2023/07/06 09:26:06;;;;;;;;;;;21.20;99.90;;;;;;7338881;19;108770;-64
2023/07/06 09:28:55;;;;;;;;;;;21.30;99.90;;;;;;7336049;19;109194;-64
2023/07/06 09:31:23;;;;;;;;;;;21.40;99.90;;;;;;7334937;19;110164;-63
2023/07/06 09:33:53;;;;;;;;;;;21.40;99.90;;;;;;7337802;19;110838;-63
2023/07/06 09:36:23;;;;;;;;;;;21.40;99.90;;;;;;7342106;19;110869;-63
2023/07/06 09:38:51;;;;;;;;;;;21.40;99.90;;;;;;7338682;19;108425;-64
2023/07/06 09:41:21;;;;;;;;;;;21.40;99.90;;;;;;7337294;19;109604;-64
2023/07/06 09:43:50;;;;;;;;;;;21.50;99.90;;;;;;7336278;19;110209;-63
2023/07/06 09:46:17;;;;;;;;;;;21.50;99.90;;;;;;7334159;19;109225;-64
2023/07/06 09:48:44;;;;;;;;;;;21.50;99.90;;;;;;7336479;19;110181;-64
2023/07/06 09:51:29;;;;;;;;;;;21.50;99.90;;;;;;7336636;19;108771;-63
2023/07/06 09:54:02;;;;;;;;;;;21.60;99.90;;;;;;7337949;19;108846;-63
2023/07/06 09:56:29;;;;;;;;;;;21.80;99.90;;;;;;7338212;19;109188;-64
2023/07/06 09:59:00;;;;;;;;;;;21.90;99.90;;;;;;7342332;19;108366;-64
2023/07/06 10:01:37;;;;;;;;;;;22.00;99.90;;;;;;7333217;19;110216;-66
2023/07/06 10:04:04;;;;;;;;;;;22.00;99.90;;;;;;7336052;19;108962;-66
2023/07/06 10:06:50;;;;;;;;;;;22.10;99.90;;;;;;7338254;19;109980;-64
2023/07/06 10:09:30;;;;;;;;;;;22.20;99.90;;;;;;7335984;19;109667;-68
2023/07/06 10:12:01;;;;;;;;;;;22.30;99.90;;;;;;7335179;19;109574;-64
2023/07/06 10:14:48;;;;;;;;;;;22.30;99.90;;;;;;7336953;19;108960;-64
2023/07/06 10:17:30;;;;;;;;;;;22.40;99.90;;;;;;7333978;19;109083;-64
2023/07/06 10:20:10;;;;;;;;;;;22.40;99.90;;;;;;7339011;19;109251;-64
2023/07/06 10:22:37;;;;;;;;;;;22.50;99.90;;;;;;7307621;19;110795;-64
2023/07/06 10:27:55;;;;;;;;;;;22.60;99.90;;;;;;7333283;19;109139;-64
2023/07/06 10:30:45;;;;;;;;;;;22.80;99.90;;;;;;7333830;19;109433;-65
2023/07/06 10:33:17;;;;;;;;;;;22.90;99.90;;;;;;7333378;19;108402;-64
2023/07/06 10:35:46;;;;;;;;;;;23.10;99.90;;;;;;7334108;19;108767;-65
2023/07/06 10:38:13;;;;;;;;;;;23.20;99.90;;;;;;7334376;19;110146;-64
2023/07/06 10:40:41;;;;;;;;;;;23.30;99.90;;;;;;7335666;19;109479;-64
2023/07/06 10:43:14;;;;;;;;;;;23.40;99.90;;;;;;7340126;19;110533;-64
2023/07/06 10:45:43;;;;;;;;;;;23.50;99.90;;;;;;7334173;19;110105;-64
2023/07/06 10:48:26;;;;;;;;;;;23.50;99.90;;;;;;7331862;19;108340;-64
2023/07/06 10:51:05;;;;;;;;;;;23.60;99.90;;;;;;7335266;19;110547;-64
2023/07/06 10:53:32;;;;;;;;;;;23.70;99.90;;;;;;7332308;19;109659;-64
2023/07/06 10:56:02;;;;;;;;;;;23.80;99.90;;;;;;7330684;19;109793;-76
2023/07/06 10:58:30;;;;;;;;;;;24.00;99.90;;;;;;7331002;19;110295;-73
2023/07/06 11:00:58;;;;;;;;;;;24.20;99.90;;;;;;7332236;19;109648;-73
2023/07/06 11:03:27;;;;;;;;;;;24.30;99.90;;;;;;7330466;19;110541;-74
2023/07/06 11:06:05;;;;;;;;;;;24.30;99.90;;;;;;7335914;19;110972;-73
2023/07/06 11:08:53;;;;;;;;;;;24.30;99.90;;;;;;7327366;19;108695;-73
2023/07/06 11:11:21;;;;;;;;;;;24.30;99.90;;;;;;7333709;19;109598;-73
2023/07/06 11:13:50;;;;;;;;;;;24.30;99.90;;;;;;7328064;19;108815;-74
2023/07/06 11:16:22;;;;;;;;;;;24.30;99.90;;;;;;7330117;19;108918;-73
2023/07/06 11:18:51;;;;;;;;;;;24.10;99.90;;;;;;7332154;19;109830;-72
2023/07/06 11:21:24;;;;;;;;;;;24.10;99.90;;;;;;7332757;19;109107;-71
2023/07/06 11:24:06;;;;;;;;;;;24.00;99.90;;;;;;7333636;19;109093;-72
2023/07/06 11:26:54;;;;;;;;;;;24.10;99.90;;;;;;7333469;19;111442;-73
2023/07/06 11:29:24;;;;;;;;;;;24.30;99.90;;;;;;7337077;19;108939;-72
2023/07/06 11:31:57;;;;;;;;;;;24.40;99.90;;;;;;7332237;19;109312;-72
2023/07/06 11:34:48;;;;;;;;;;;24.50;99.90;;;;;;7333497;19;108442;-74
2023/07/06 11:37:21;;;;;;;;;;;24.40;99.90;;;;;;7334202;19;109721;-71
2023/07/06 11:39:57;;;;;;;;;;;24.40;99.90;;;;;;7330618;19;109091;-72
2023/07/06 11:42:30;;;;;;;;;;;24.50;99.90;;;;;;7333625;19;108585;-72
2023/07/06 11:45:03;;;;;;;;;;;24.60;99.90;;;;;;7330822;19;109272;-72
2023/07/06 11:47:59;;;;;;;;;;;24.80;99.90;;;;;;7335027;19;111423;-71
2023/07/06 11:50:33;;;;;;;;;;;24.90;99.90;;;;;;7326425;19;109864;-72
2023/07/06 11:53:09;;;;;;;;;;;25.00;99.90;;;;;;7337496;19;108344;-72
2023/07/06 11:55:50;;;;;;;;;;;25.00;99.90;;;;;;7333424;19;108743;-73
2023/07/06 11:58:31;;;;;;;;;;;25.00;99.90;;;;;;7330688;19;108822;-72
2023/07/06 12:01:10;;;;;;;;;;;25.20;99.80;;;;;;7330937;19;110229;-73
2023/07/06 12:03:38;;;;;;;;;;;25.40;99.50;;;;;;7327024;19;110003;-72
2023/07/06 12:06:05;;;;;;;;;;;25.40;99.80;;;;;;7330159;19;109005;-72
2023/07/06 12:08:36;;;;;;;;;;;25.30;99.50;;;;;;7324573;19;109469;-73
2023/07/06 12:11:06;;;;;;;;;;;25.40;98.60;;;;;;7328011;19;108511;-72
2023/07/06 12:13:34;;;;;;;;;;;25.50;99.00;;;;;;7334514;19;109278;-73
2023/07/06 12:16:07;;;;;;;;;;;25.60;99.30;;;;;;7330730;19;108810;-72
2023/07/06 12:18:34;;;;;;;;;;;25.80;98.40;;;;;;7326593;19;109293;-73
2023/07/06 12:21:03;;;;;;;;;;;25.90;97.20;;;;;;7327709;19;108899;-72
2023/07/06 12:23:30;;;;;;;;;;;26.10;97.50;;;;;;7331077;19;108975;-72
2023/07/06 12:25:57;;;;;;;;;;;26.20;96.90;;;;;;7332598;19;108476;-72
2023/07/06 12:28:29;;;;;;;;;;;26.40;97.90;;;;;;7339809;19;110237;-72
2023/07/06 12:31:02;;;;;;;;;;;26.40;96.30;;;;;;7337835;19;109013;-72
2023/07/06 12:33:32;;;;;;;;;;;26.50;98.50;;;;;;7333639;19;109080;-72
2023/07/06 12:36:00;;;;;;;;;;;26.40;95.40;;;;;;7343684;19;110600;-72
2023/07/06 12:38:28;;;;;;;;;;;26.30;96.10;;;;;;7330868;19;110561;-71
2023/07/06 12:41:10;;;;;;;;;;;26.20;94.40;;;;;;7335520;19;110115;-72
2023/07/06 12:43:37;;;;;;;;;;;26.00;96.00;;;;;;7335361;19;110552;-72
2023/07/06 12:46:04;;;;;;;;;;;25.90;96.40;;;;;;7333894;19;108670;-72
2023/07/06 12:48:33;;;;;;;;;;;26.10;98.20;;;;;;7331808;19;110499;-72
2023/07/06 12:51:09;;;;;;;;;;;26.30;96.50;;;;;;7335805;19;109516;-73
2023/07/06 12:53:37;;;;;;;;;;;26.30;94.70;;;;;;7334660;19;108718;-73
2023/07/06 12:56:06;;;;;;;;;;;26.20;96.20;;;;;;7146324;19;3642548;-73
2023/07/06 12:58:34;;;;;;;;;;;26.00;94.10;;;;;;7344670;19;109902;-72
2023/07/06 13:01:10;;;;;;;;;;;25.90;94.70;;;;;;7333957;19;109216;-73
2023/07/06 13:03:46;;;;;;;;;;;25.80;95.50;;;;;;7338545;19;109185;-87
2023/07/06 13:06:13;;;;;;;;;;;26.00;96.50;;;;;;7327912;19;115830;-87
2023/07/06 13:08:41;;;;;;;;;;;26.20;96.20;;;;;;7328105;19;110535;-87
2023/07/06 13:11:08;;;;;;;;;;;26.30;95.30;;;;;;7332824;19;109743;-86
2023/07/06 13:13:38;;;;;;;;;;;26.30;95.20;;;;;;7331361;19;111668;-86
2023/07/06 13:16:13;;;;;;;;;;;26.40;96.00;;;;;;7333289;19;110508;-86
2023/07/06 13:18:40;;;;;;;;;;;26.40;95.60;;;;;;7330515;19;109052;-87
2023/07/06 13:21:19;;;;;;;;;;;26.50;95.00;;;;;;7333788;19;111903;-86
2023/07/06 13:23:54;;;;;;;;;;;26.40;94.00;;;;;;7337855;19;108626;-87
2023/07/06 13:26:26;;;;;;;;;;;26.30;94.70;;;;;;7334907;19;109750;-88
2023/07/06 13:28:53;;;;;;;;;;;26.30;94.40;;;;;;7334679;19;109876;-89
2023/07/06 13:31:21;;;;;;;;;;;26.30;94.20;;;;;;7325483;19;109814;-88
2023/07/06 13:33:48;;;;;;;;;;;26.30;94.30;;;;;;7327915;19;109367;-88
2023/07/06 13:36:17;;;;;;;;;;;26.40;95.80;;;;;;7326944;19;112627;-89
2023/07/06 13:38:49;;;;;;;;;;;26.60;94.90;;;;;;7326531;19;108936;-88
2023/07/06 13:41:20;;;;;;;;;;;26.60;93.50;;;;;;7332938;19;109469;-89
2023/07/06 13:43:48;;;;;;;;;;;26.60;93.90;;;;;;7337730;19;111424;-73
2023/07/06 13:46:16;;;;;;;;;;;26.60;94.70;;;;;;7336912;19;110041;-74
2023/07/06 13:48:44;;;;;;;;;;;26.70;93.30;;;;;;7336035;19;111499;-73
2023/07/06 13:51:12;;;;;;;;;;;26.70;93.80;;;;;;7336807;19;108818;-73
2023/07/06 13:53:39;;;;;;;;;;;26.70;93.50;;;;;;7337309;19;108591;-74
2023/07/06 13:56:10;;;;;;;;;;;27.00;95.20;;;;;;7336392;19;110055;-73
2023/07/06 13:58:43;;;;;;;;;;;27.20;94.20;;;;;;7337381;19;109059;-74
2023/07/06 14:01:12;;;;;;;;;;;27.20;93.30;;;;;;7337360;19;108251;-74
2023/07/06 14:03:40;;;;;;;;;;;27.10;92.50;;;;;;7334865;19;110163;-74
2023/07/06 14:06:07;;;;;;;;;;;27.20;93.10;;;;;;7340881;19;108658;-75
2023/07/06 14:08:34;;;;;;;;;;;27.30;92.90;;;;;;7335871;19;110103;-73
2023/07/06 14:11:02;;;;;;;;;;;27.40;93.50;;;;;;7338673;19;109708;-73
2023/07/06 14:13:30;;;;;;;;;;;27.40;93.60;;;;;;7331424;19;110005;-74
2023/07/06 14:15:58;;;;;;;;;;;27.70;93.40;;;;;;7333543;19;110295;-74
2023/07/06 14:18:26;;;;;;;;;;;27.80;93.10;;;;;;7332602;19;108963;-74
2023/07/06 14:20:57;;;;;;;;;;;27.90;93.00;;;;;;7333437;19;108707;-74
2023/07/06 14:23:26;;;;;;;;;;;27.90;93.50;;;;;;7335836;19;110061;-74